Time;durP1;ratioP1;P1;durP2;ratioP2;P2;SDS_P1;SDS_P2;PMS_P1;PMS_P2;Temp;Humidity;BMP_temperature;BMP_pressure;BME280_temperature;BME280_humidity;BME280_pressure;Samples;Min_cycle;Max_cycle;Signal;HPM_P1;HPM_P2
2021/09/13 00:00:06;;;;;;;11.18;5.40;;;460.90;2176.00;;;;;;5016252;28;20117;-78
2021/09/13 00:02:32;;;;;;;9.98;6.00;;;460.80;2176.00;;;;;;5015664;28;20034;-79
2021/09/13 00:04:58;;;;;;;11.00;5.35;;;460.90;2150.40;;;;;;5015857;28;20438;-79
2021/09/13 00:07:24;;;;;;;10.70;5.82;;;460.80;2176.00;;;;;;5016026;28;20117;-79
2021/09/13 00:09:50;;;;;;;13.30;6.07;;;460.80;2150.40;;;;;;5015638;28;20030;-79
2021/09/13 00:12:16;;;;;;;12.38;5.95;;;460.80;2150.40;;;;;;5015709;28;20030;-79
2021/09/13 00:14:42;;;;;;;10.43;5.78;;;460.80;2176.00;;;;;;5015872;28;20022;-78
2021/09/13 00:17:08;;;;;;;11.73;5.82;;;436.10;2150.40;;;;;;5015419;28;20465;-78
2021/09/13 00:19:34;;;;;;;11.10;5.47;;;436.10;2150.40;;;;;;5016840;28;20489;-78
2021/09/13 00:22:00;;;;;;;11.55;5.90;;;436.00;2150.40;;;;;;5014687;28;20034;-79
2021/09/13 00:24:25;;;;;;;12.38;5.95;;;436.10;2150.40;;;;;;5014479;28;20377;-79
2021/09/13 00:26:51;;;;;;;11.68;5.70;;;436.00;2150.40;;;;;;5016477;28;20462;-79
2021/09/13 00:29:17;;;;;;;11.18;5.43;;;436.00;2150.40;;;;;;5014584;28;20130;-77
2021/09/13 00:31:43;;;;;;;15.52;5.60;;;436.00;2150.40;;;;;;5015047;28;20065;-79
2021/09/13 00:34:09;;;;;;;12.23;5.57;;;435.90;2176.00;;;;;;5014743;28;20377;-77
2021/09/13 00:36:35;;;;;;;13.48;6.53;;;435.90;2176.00;;;;;;5017334;28;20026;-79
2021/09/13 00:39:01;;;;;;;10.05;5.82;;;435.90;2176.00;;;;;;5014771;28;20030;-78
2021/09/13 00:41:27;;;;;;;10.07;5.63;;;435.90;2176.00;;;;;;5014388;28;20038;-77
2021/09/13 00:43:53;;;;;;;10.90;5.40;;;435.90;2176.00;;;;;;5014382;28;20140;-79
2021/09/13 00:46:18;;;;;;;10.45;5.05;;;435.70;2201.60;;;;;;5014841;28;20049;-79
2021/09/13 00:48:44;;;;;;;8.32;4.78;;;435.70;2201.60;;;;;;5014400;28;20471;-83
2021/09/13 00:51:10;;;;;;;8.35;5.03;;;435.50;2227.20;;;;;;5015044;28;20058;-80
2021/09/13 00:53:36;;;;;;;12.35;5.38;;;435.60;2227.20;;;;;;5014307;28;20393;-79
2021/09/13 00:56:03;;;;;;;9.85;4.82;;;435.70;2201.60;;;;;;5014452;28;20026;-79
2021/09/13 00:58:29;;;;;;;10.68;5.05;;;435.70;2227.20;;;;;;5014178;28;20026;-79
2021/09/13 01:00:55;;;;;;;9.85;5.63;;;435.70;2227.20;;;;;;5014286;28;20025;-78
2021/09/13 01:03:21;;;;;;;8.77;4.65;;;435.70;2227.20;;;;;;5014432;28;20026;-79
2021/09/13 01:05:48;;;;;;;11.13;4.75;;;435.80;2201.60;;;;;;5013982;28;20026;-80
2021/09/13 01:08:14;;;;;;;11.20;5.47;;;435.80;2227.20;;;;;;5014255;28;20033;-80
2021/09/13 01:10:40;;;;;;;9.35;5.22;;;435.90;2227.20;;;;;;5015618;28;20053;-79
2021/09/13 01:13:06;;;;;;;10.20;5.35;;;435.90;2201.60;;;;;;5013676;28;20034;-80
2021/09/13 01:15:38;;;;;;;9.77;6.55;;;435.90;2201.60;;;;;;5014018;28;20022;-80
2021/09/13 01:18:04;;;;;;;8.80;5.10;;;435.90;2227.20;;;;;;5013846;28;20034;-79
2021/09/13 01:20:30;;;;;;;7.95;4.90;;;435.80;2227.20;;;;;;5014877;28;20392;-79
2021/09/13 01:23:05;;;;;;;9.30;4.80;;;435.80;2227.20;;;;;;5013677;28;20040;-80
2021/09/13 01:25:31;;;;;;;7.55;4.70;;;435.70;2227.20;;;;;;5014820;28;20113;-80
2021/09/13 01:27:58;;;;;;;9.48;5.47;;;435.70;2227.20;;;;;;5015098;28;20101;-80
2021/09/13 01:30:24;;;;;;;10.88;4.82;;;435.70;2252.80;;;;;;5013316;28;20045;-80
2021/09/13 01:32:49;;;;;;;7.28;4.72;;;435.50;2278.40;;;;;;5013547;28;20088;-80
2021/09/13 01:35:15;;;;;;;9.88;5.28;;;435.60;2252.80;;;;;;5012949;28;20095;-81
2021/09/13 01:37:41;;;;;;;6.90;4.97;;;435.60;2252.80;;;;;;5014612;28;20102;-80
2021/09/13 01:40:08;;;;;;;8.68;5.07;;;435.60;2278.40;;;;;;5013291;28;20030;-79
2021/09/13 01:42:34;;;;;;;9.68;5.50;;;435.50;2278.40;;;;;;5014933;28;20386;-80
2021/09/13 01:45:00;;;;;;;11.05;5.35;;;435.60;2278.40;;;;;;5013684;28;20044;-80
2021/09/13 01:47:26;;;;;;;11.73;5.32;;;435.60;2304.00;;;;;;5014840;28;20026;-79
2021/09/13 01:49:52;;;;;;;11.57;5.97;;;435.50;2278.40;;;;;;5013450;28;20462;-80
2021/09/13 01:52:17;;;;;;;9.27;5.20;;;435.60;2278.40;;;;;;5013318;28;20068;-80
2021/09/13 01:54:43;;;;;;;10.50;5.85;;;435.60;2304.00;;;;;;5013189;28;20026;-79
2021/09/13 01:57:09;;;;;;;9.85;5.78;;;435.60;2304.00;;;;;;5013149;28;20037;-81
2021/09/13 01:59:35;;;;;;;9.23;5.80;;;435.50;2304.00;;;;;;5013012;28;20030;-80
2021/09/13 02:02:01;;;;;;;14.95;6.93;;;435.50;2304.00;;;;;;5013971;28;20532;-80
2021/09/13 02:04:27;;;;;;;18.23;6.63;;;435.50;2304.00;;;;;;5013235;28;20040;-80
2021/09/13 02:06:52;;;;;;;13.82;5.88;;;435.50;2329.60;;;;;;5012806;28;20022;-78
2021/09/13 02:09:18;;;;;;;14.25;6.20;;;435.40;2329.60;;;;;;5014454;28;20371;-80
2021/09/13 02:11:44;;;;;;;10.25;5.90;;;410.50;2355.20;;;;;;5014295;28;20038;-80
2021/09/13 02:14:10;;;;;;;11.63;6.15;;;410.50;2355.20;;;;;;5012813;28;20026;-80
2021/09/13 02:16:36;;;;;;;10.90;6.43;;;435.30;2329.60;;;;;;5012935;28;20492;-80
2021/09/13 02:19:01;;;;;;;11.73;6.07;;;435.30;2329.60;;;;;;5013165;28;20065;-80
2021/09/13 02:21:27;;;;;;;8.20;5.45;;;435.40;2329.60;;;;;;5013495;28;20038;-81
2021/09/13 02:23:53;;;;;;;11.18;6.38;;;435.30;2355.20;;;;;;5013156;28;20574;-79
2021/09/13 02:26:19;;;;;;;15.40;7.43;;;435.20;2355.20;;;;;;5014062;28;20489;-79
2021/09/13 02:28:45;;;;;;;9.60;5.70;;;410.40;2355.20;;;;;;5012624;28;20049;-80
2021/09/13 02:31:11;;;;;;;10.38;6.18;;;410.00;2355.20;;;;;;5012700;28;20054;-81
2021/09/13 02:33:36;;;;;;;9.13;5.75;;;410.20;2355.20;;;;;;5013895;28;20394;-79
2021/09/13 02:36:02;;;;;;;11.23;5.80;;;410.30;2355.20;;;;;;5013746;28;20030;-81
2021/09/13 02:38:28;;;;;;;11.00;6.55;;;410.40;2355.20;;;;;;5012671;28;20121;-80
2021/09/13 02:40:54;;;;;;;10.93;6.18;;;410.30;2355.20;;;;;;5012511;28;20026;-80
2021/09/13 02:43:20;;;;;;;9.80;6.50;;;410.30;2355.20;;;;;;5012413;28;20026;-80
2021/09/13 02:45:46;;;;;;;9.68;5.55;;;410.40;2355.20;;;;;;5013526;28;20041;-80
2021/09/13 02:48:11;;;;;;;9.02;5.60;;;410.30;2355.20;;;;;;5016111;28;20029;-79
2021/09/13 02:50:37;;;;;;;11.98;6.15;;;410.40;2355.20;;;;;;5017600;28;20026;-80
2021/09/13 02:53:03;;;;;;;16.42;5.97;;;410.40;2355.20;;;;;;5016325;28;20037;-80
2021/09/13 02:55:29;;;;;;;10.85;5.30;;;410.40;2355.20;;;;;;5016534;28;20026;-80
2021/09/13 02:57:55;;;;;;;9.20;5.68;;;410.30;2355.20;;;;;;5016175;28;20030;-79
2021/09/13 03:00:21;;;;;;;12.07;6.22;;;410.30;2355.20;;;;;;5016420;28;20497;-80
2021/09/13 03:02:47;;;;;;;14.18;7.97;;;410.30;2355.20;;;;;;5017423;28;20049;-80
2021/09/13 03:05:13;;;;;;;11.23;7.18;;;410.30;2355.20;;;;;;5016394;28;20026;-80
2021/09/13 03:07:39;;;;;;;12.52;7.25;;;409.90;2355.20;;;;;;5016696;28;20477;-80
2021/09/13 03:10:05;;;;;;;11.13;6.80;;;409.60;2355.20;;;;;;5016140;28;20029;-80
2021/09/13 03:12:33;;;;;;;9.98;6.90;;;409.70;2355.20;;;;;;5016450;28;20068;-79
2021/09/13 03:15:08;;;;;;;10.18;6.18;;;409.90;2355.20;;;;;;5015985;28;20034;-80
2021/09/13 03:17:34;;;;;;;11.13;6.32;;;410.00;2355.20;;;;;;5017380;28;20029;-79
2021/09/13 03:19:59;;;;;;;8.48;5.93;;;410.00;2355.20;;;;;;5017594;28;20037;-80
2021/09/13 03:22:25;;;;;;;13.57;6.80;;;409.70;2355.20;;;;;;5017313;28;20129;-80
2021/09/13 03:24:51;;;;;;;19.00;11.75;;;384.90;2329.60;;;;;;5016100;28;20026;-78
2021/09/13 03:27:17;;;;;;;18.77;11.02;;;384.50;2329.60;;;;;;5017432;28;20022;-77
2021/09/13 03:29:43;;;;;;;15.40;9.73;;;384.60;2329.60;;;;;;5015758;28;20088;-79
2021/09/13 03:32:10;;;;;;;10.35;7.22;;;384.70;2329.60;;;;;;5015300;28;20046;-80
2021/09/13 03:34:36;;;;;;;11.13;7.65;;;384.90;2329.60;;;;;;5015658;28;20032;-79
2021/09/13 03:37:03;;;;;;;13.52;7.70;;;409.60;2355.20;;;;;;5016112;28;20026;-76
2021/09/13 03:39:29;;;;;;;14.57;7.80;;;409.70;2355.20;;;;;;5016792;28;20036;-76
2021/09/13 03:41:55;;;;;;;10.38;7.60;;;409.70;2355.20;;;;;;5016260;28;20069;-78
2021/09/13 03:44:21;;;;;;;22.05;11.90;;;409.70;2355.20;;;;;;5016783;28;20054;-78
2021/09/13 03:46:47;;;;;;;17.48;9.25;;;384.60;2329.60;;;;;;5016274;28;20088;-79
2021/09/13 03:49:12;;;;;;;12.55;7.63;;;384.20;2329.60;;;;;;5015500;28;20384;-80
2021/09/13 03:51:38;;;;;;;12.68;7.80;;;384.20;2329.60;;;;;;5015533;28;20041;-81
2021/09/13 03:54:04;;;;;;;14.48;7.75;;;384.20;2329.60;;;;;;5015222;28;20026;-80
2021/09/13 03:56:30;;;;;;;11.40;6.40;;;384.40;2329.60;;;;;;5015258;28;20022;-79
2021/09/13 03:58:56;;;;;;;13.70;7.63;;;384.20;2329.60;;;;;;5014389;28;20029;-81
2021/09/13 04:01:23;;;;;;;11.32;6.78;;;384.30;2329.60;;;;;;5016411;28;20038;-81
2021/09/13 04:03:50;;;;;;;16.83;6.95;;;384.50;2329.60;;;;;;5015128;28;20485;-78
2021/09/13 04:11:36;;;;;;;13.88;7.05;;;384.20;2329.60;;;;;;5016483;28;20076;-79
2021/09/13 04:14:02;;;;;;;11.90;6.88;;;384.40;2329.60;;;;;;5015021;28;20107;-79
2021/09/13 04:16:28;;;;;;;9.57;6.00;;;384.50;2329.60;;;;;;5015475;28;20029;-78
2021/09/13 04:18:54;;;;;;;16.90;10.02;;;384.60;2329.60;;;;;;5015212;28;20026;-81
2021/09/13 04:21:20;;;;;;;14.85;8.45;;;384.20;2329.60;;;;;;5015022;28;20465;-82
2021/09/13 04:23:46;;;;;;;13.45;6.85;;;384.30;2329.60;;;;;;5015112;28;20030;-79
2021/09/13 04:26:11;;;;;;;14.63;7.53;;;384.40;2329.60;;;;;;5017852;28;20032;-82
2021/09/13 04:28:37;;;;;;;12.73;7.90;;;384.70;2329.60;;;;;;5014694;28;20088;-82
2021/09/13 04:31:03;;;;;;;11.38;6.78;;;384.70;2329.60;;;;;;5014203;28;20120;-79
2021/09/13 04:33:29;;;;;;;12.63;7.22;;;384.90;2329.60;;;;;;5014435;28;20121;-81
2021/09/13 04:35:55;;;;;;;13.43;7.35;;;384.80;2329.60;;;;;;5014384;28;20033;-80
2021/09/13 04:38:21;;;;;;;13.02;7.22;;;409.60;2355.20;;;;;;5014829;28;20534;-80
2021/09/13 04:40:46;;;;;;;13.02;7.22;;;384.80;2329.60;;;;;;5014387;28;20030;-81
2021/09/13 04:43:12;;;;;;;18.60;7.38;;;384.50;2329.60;;;;;;5014590;28;20482;-80
2021/09/13 04:45:38;;;;;;;16.15;7.90;;;384.40;2329.60;;;;;;5014305;28;20061;-81
2021/09/13 04:48:04;;;;;;;12.32;7.47;;;384.20;2329.60;;;;;;5015098;28;20050;-81
2021/09/13 04:50:30;;;;;;;18.52;8.00;;;359.30;2329.60;;;;;;5014414;28;20026;-79
2021/09/13 04:52:56;;;;;;;18.02;7.85;;;384.20;2329.60;;;;;;5014408;28;20026;-81
2021/09/13 04:55:21;;;;;;;16.92;8.10;;;384.10;2329.60;;;;;;5014231;28;20026;-79
2021/09/13 04:57:47;;;;;;;13.40;7.10;;;384.00;2329.60;;;;;;5014649;28;20397;-81
2021/09/13 05:00:15;;;;;;;20.52;7.40;;;384.00;2329.60;;;;;;5014329;28;20458;-80
2021/09/13 05:02:42;;;;;;;16.58;6.90;;;384.00;2329.60;;;;;;5014927;28;20088;-80
2021/09/13 05:05:08;;;;;;;12.05;6.95;;;384.20;2329.60;;;;;;5015119;28;20034;-79
2021/09/13 05:07:34;;;;;;;20.52;11.13;;;384.30;2329.60;;;;;;5015173;28;20072;-80
2021/09/13 05:10:02;;;;;;;20.17;11.57;;;359.10;2329.60;;;;;;5012790;28;20026;-79
2021/09/13 05:12:28;;;;;;;16.60;10.20;;;359.10;2329.60;;;;;;5013794;28;20125;-79
2021/09/13 05:14:54;;;;;;;12.75;8.00;;;359.30;2329.60;;;;;;5015501;28;20065;-80
2021/09/13 05:17:20;;;;;;;32.42;8.82;;;384.10;2329.60;;;;;;5013497;28;20022;-79
2021/09/13 05:19:46;;;;;;;18.17;8.88;;;384.30;2329.60;;;;;;5014048;28;20393;-79
2021/09/13 05:22:12;;;;;;;13.90;8.30;;;384.40;2329.60;;;;;;5013861;28;20030;-80
2021/09/13 05:24:37;;;;;;;17.80;9.88;;;384.50;2329.60;;;;;;5013394;28;20022;-80
2021/09/13 05:27:03;;;;;;;16.45;10.05;;;384.60;2329.60;;;;;;5013553;28;20533;-79
2021/09/13 05:29:29;;;;;;;15.90;10.38;;;384.90;2329.60;;;;;;5013714;28;20137;-78
2021/09/13 05:31:55;;;;;;;17.83;11.02;;;409.60;2355.20;;;;;;5013810;28;20036;-79
2021/09/13 05:34:21;;;;;;;17.35;9.63;;;409.70;2355.20;;;;;;5015346;28;20101;-78
2021/09/13 05:36:47;;;;;;;17.98;9.23;;;409.80;2355.20;;;;;;5013241;28;20029;-77
2021/09/13 05:39:12;;;;;;;18.92;8.90;;;409.90;2355.20;;;;;;5013830;28;20382;-78
2021/09/13 05:41:38;;;;;;;21.52;10.85;;;384.90;2329.60;;;;;;5013340;28;20030;-80
2021/09/13 05:44:05;;;;;;;25.92;13.45;;;409.70;2355.20;;;;;;5013175;28;20113;-79
2021/09/13 05:46:31;;;;;;;27.48;12.52;;;384.80;2329.60;;;;;;5014275;28;20018;-81
2021/09/13 05:48:57;;;;;;;31.58;12.90;;;384.80;2329.60;;;;;;5013212;28;20026;-80
2021/09/13 05:51:23;;;;;;;22.60;13.90;;;409.70;2355.20;;;;;;5012898;28;20030;-81
2021/09/13 05:53:49;;;;;;;29.23;16.45;;;409.90;2355.20;;;;;;5014310;28;20022;-80
2021/09/13 05:56:15;;;;;;;31.95;14.18;;;409.80;2355.20;;;;;;5013242;28;20030;-80
2021/09/13 05:58:41;;;;;;;19.80;8.52;;;409.90;2355.20;;;;;;5012898;28;20030;-79
2021/09/13 06:01:06;;;;;;;19.67;8.85;;;409.60;2355.20;;;;;;5013063;28;20528;-80
2021/09/13 06:03:32;;;;;;;15.75;8.75;;;409.60;2355.20;;;;;;5014130;28;20706;-79
2021/09/13 06:05:58;;;;;;;15.73;8.45;;;409.70;2355.20;;;;;;5012797;28;20026;-80
2021/09/13 06:08:24;;;;;;;11.00;7.40;;;409.90;2355.20;;;;;;5012945;28;20058;-81
2021/09/13 06:10:50;;;;;;;11.02;7.45;;;409.70;2355.20;;;;;;5014108;28;20033;-81
2021/09/13 06:13:16;;;;;;;11.32;7.35;;;409.90;2355.20;;;;;;5012501;28;20036;-81
2021/09/13 06:15:42;;;;;;;13.02;8.18;;;409.90;2355.20;;;;;;5012847;28;20025;-80
2021/09/13 06:18:08;;;;;;;13.07;8.20;;;409.90;2355.20;;;;;;5012854;28;20041;-78
2021/09/13 06:20:34;;;;;;;14.20;8.23;;;409.90;2355.20;;;;;;5012459;28;20033;-78
2021/09/13 06:23:00;;;;;;;15.18;8.70;;;410.00;2355.20;;;;;;5012409;28;20034;-80
2021/09/13 06:25:26;;;;;;;14.38;8.15;;;410.10;2355.20;;;;;;5012590;28;20068;-80
2021/09/13 06:27:52;;;;;;;11.82;7.15;;;410.20;2355.20;;;;;;5012635;28;20049;-79
2021/09/13 06:30:18;;;;;;;13.05;7.20;;;410.20;2355.20;;;;;;5012202;28;20129;-78
2021/09/13 06:32:44;;;;;;;18.83;7.07;;;410.50;2355.20;;;;;;5012306;28;20088;-79
2021/09/13 06:35:10;;;;;;;14.02;8.10;;;410.50;2355.20;;;;;;5012739;28;20026;-78
2021/09/13 06:37:35;;;;;;;19.50;8.75;;;435.20;2355.20;;;;;;5012781;28;20128;-78
2021/09/13 06:40:01;;;;;;;11.05;7.32;;;435.30;2355.20;;;;;;5012369;28;20136;-78
2021/09/13 06:42:30;;;;;;;21.80;11.20;;;435.50;2355.20;;;;;;5012799;28;20030;-79
2021/09/13 06:44:56;;;;;;;14.98;9.35;;;435.60;2355.20;;;;;;5012549;28;20035;-79
2021/09/13 06:47:43;;;;;;;14.07;7.70;;;435.70;2355.20;;;;;;5012168;28;20022;-79
2021/09/13 06:50:08;;;;;;;12.23;6.70;;;435.80;2355.20;;;;;;5013403;28;20022;-78
2021/09/13 06:52:35;;;;;;;15.70;6.82;;;435.90;2355.20;;;;;;5012532;28;20117;-78
2021/09/13 06:55:00;;;;;;;14.82;6.95;;;436.00;2355.20;;;;;;5012349;28;20556;-78
2021/09/13 06:57:26;;;;;;;16.80;6.88;;;460.80;2380.80;;;;;;5012636;28;20038;-78
2021/09/13 06:59:52;;;;;;;10.88;5.97;;;460.90;2380.80;;;;;;5012612;28;20493;-79
2021/09/13 07:02:18;;;;;;;14.93;7.32;;;461.10;2380.80;;;;;;5013480;28;20030;-79
2021/09/13 07:04:44;;;;;;;15.40;7.65;;;461.20;2380.80;;;;;;5012853;28;20026;-78
2021/09/13 07:07:09;;;;;;;12.68;6.47;;;461.20;2380.80;;;;;;5012267;28;20466;-77
2021/09/13 07:09:36;;;;;;;17.48;9.05;;;461.40;2380.80;;;;;;5012385;28;20058;-79
2021/09/13 07:12:01;;;;;;;19.77;9.82;;;461.50;2380.80;;;;;;5012432;28;20116;-78
2021/09/13 07:14:27;;;;;;;20.00;7.78;;;461.60;2380.80;;;;;;5012350;28;20116;-78
2021/09/13 07:16:53;;;;;;;13.43;6.70;;;461.70;2380.80;;;;;;5013070;28;20074;-77
2021/09/13 07:19:19;;;;;;;27.45;10.25;;;486.40;2380.80;;;;;;5012306;28;20026;-78
2021/09/13 07:21:45;;;;;;;19.95;12.85;;;486.60;2380.80;;;;;;5011958;28;20034;-80
2021/09/13 07:24:10;;;;;;;16.63;11.95;;;486.70;2355.20;;;;;;5012568;28;20477;-78
2021/09/13 07:26:36;;;;;;;17.67;11.20;;;486.70;2380.80;;;;;;5012356;28;20062;-81
2021/09/13 07:29:03;;;;;;;19.42;12.88;;;486.80;2355.20;;;;;;5011963;28;20034;-80
2021/09/13 07:31:29;;;;;;;16.73;10.68;;;486.90;2355.20;;;;;;5012127;28;20579;-80
2021/09/13 07:33:55;;;;;;;19.27;12.18;;;487.00;2329.60;;;;;;5013512;28;20417;-79
2021/09/13 07:36:21;;;;;;;14.15;10.52;;;487.20;2304.00;;;;;;5015643;28;20026;-79
2021/09/13 07:38:46;;;;;;;17.73;12.68;;;487.30;2304.00;;;;;;5015809;28;20061;-80
2021/09/13 07:41:12;;;;;;;19.05;11.32;;;487.30;2304.00;;;;;;5016749;28;20034;-79
2021/09/13 07:43:38;;;;;;;29.75;15.57;;;512.10;2304.00;;;;;;5016443;28;20458;-79
2021/09/13 07:46:04;;;;;;;15.70;9.10;;;512.20;2278.40;;;;;;5016124;28;20045;-76
2021/09/13 07:48:30;;;;;;;12.75;8.43;;;512.50;2278.40;;;;;;5015834;28;20060;-78
2021/09/13 07:50:56;;;;;;;18.85;12.43;;;512.70;2227.20;;;;;;5015689;28;20443;-78
2021/09/13 07:53:21;;;;;;;14.73;8.10;;;512.80;2227.20;;;;;;5016077;28;20029;-76
2021/09/13 07:55:47;;;;;;;13.95;8.93;;;512.90;2227.20;;;;;;5015330;28;20569;-75
2021/09/13 07:58:13;;;;;;;14.88;9.45;;;512.90;2201.60;;;;;;5015209;28;20033;-77
2021/09/13 08:00:39;;;;;;;14.98;6.97;;;537.60;2227.20;;;;;;5015654;28;20030;-77
2021/09/13 08:03:05;;;;;;;11.18;6.85;;;537.70;2201.60;;;;;;5017510;28;20066;-76
2021/09/13 08:05:30;;;;;;;10.73;6.45;;;537.90;2176.00;;;;;;5016292;28;20048;-77
2021/09/13 08:07:56;;;;;;;15.80;7.72;;;538.10;2150.40;;;;;;5016585;28;20045;-75
2021/09/13 08:10:22;;;;;;;17.58;10.00;;;538.10;2176.00;;;;;;5016244;28;20029;-76
2021/09/13 08:12:48;;;;;;;9.68;6.78;;;538.10;2150.40;;;;;;5016531;28;20072;-77
2021/09/13 08:15:14;;;;;;;16.00;10.13;;;538.20;2124.80;;;;;;5018531;28;20413;-77
2021/09/13 08:17:39;;;;;;;9.43;6.97;;;538.40;2150.40;;;;;;5019106;28;20064;-77
2021/09/13 08:20:09;;;;;;;13.07;6.68;;;538.50;2124.80;;;;;;5016378;28;20459;-78
2021/09/13 08:22:34;;;;;;;9.57;6.55;;;563.20;2124.80;;;;;;5038678;28;20062;-77
2021/09/13 08:25:00;;;;;;;10.40;6.32;;;563.20;2099.20;;;;;;5040024;28;20022;-77
2021/09/13 08:27:26;;;;;;;14.48;8.05;;;563.40;2099.20;;;;;;5039363;28;20110;-78
2021/09/13 08:29:52;;;;;;;13.05;6.28;;;563.60;2099.20;;;;;;5038878;28;20061;-77
2021/09/13 08:32:18;;;;;;;11.32;6.43;;;563.50;2073.60;;;;;;5040096;28;20020;-77
2021/09/13 08:34:43;;;;;;;10.70;6.45;;;563.70;2048.00;;;;;;5038468;28;20053;-77
2021/09/13 08:37:09;;;;;;;13.52;6.53;;;563.90;2048.00;;;;;;5036303;28;20026;-80
2021/09/13 08:39:35;;;;;;;11.57;5.43;;;564.00;2048.00;;;;;;5016654;28;20385;-78
2021/09/13 08:42:01;;;;;;;16.67;6.32;;;564.00;2022.40;;;;;;5014969;28;20068;-78
2021/09/13 08:44:30;;;;;;;11.73;5.65;;;564.00;2048.00;;;;;;5014311;28;20057;-79
2021/09/13 08:47:03;;;;;;;11.50;5.80;;;564.10;2022.40;;;;;;5014300;28;20034;-78
2021/09/13 08:49:33;;;;;;;14.70;7.60;;;588.90;2022.40;;;;;;5015522;28;20061;-78
2021/09/13 08:51:59;;;;;;;13.27;6.65;;;589.00;2022.40;;;;;;5015814;28;20117;-78
2021/09/13 08:54:28;;;;;;;10.20;5.65;;;589.10;1996.80;;;;;;5015811;28;20061;-79
2021/09/13 08:57:03;;;;;;;8.88;5.47;;;589.20;1996.80;;;;;;5013350;28;20025;-77
2021/09/13 08:59:32;;;;;;;13.40;6.68;;;589.30;1971.20;;;;;;5014235;28;20022;-78
2021/09/13 09:01:59;;;;;;;9.77;5.68;;;589.50;1971.20;;;;;;5014467;28;20045;-77
2021/09/13 09:04:25;;;;;;;12.15;5.68;;;589.50;1945.60;;;;;;5013852;28;20064;-77
2021/09/13 09:06:52;;;;;;;9.27;6.95;;;589.50;1971.20;;;;;;5014260;28;20030;-78
2021/09/13 09:09:21;;;;;;;10.80;6.20;;;614.40;1945.60;;;;;;5013741;28;20030;-78
2021/09/13 09:12:01;;;;;;;20.42;6.60;;;614.50;1920.00;;;;;;5013881;28;20049;-79
2021/09/13 09:14:42;;;;;;;12.93;6.18;;;614.70;1920.00;;;;;;5013805;28;20359;-78
2021/09/13 09:17:25;;;;;;;12.63;5.78;;;614.80;1894.40;;;;;;5014086;28;20026;-78
2021/09/13 09:20:00;;;;;;;11.88;6.53;;;614.80;1894.40;;;;;;5014245;28;20064;-78
2021/09/13 09:22:28;;;;;;;8.73;5.22;;;614.90;1894.40;;;;;;5013357;28;20065;-77
2021/09/13 09:24:55;;;;;;;10.65;6.25;;;614.90;1843.20;;;;;;5014888;28;20033;-77
2021/09/13 09:27:23;;;;;;;10.88;5.72;;;615.10;1868.80;;;;;;5013619;28;20022;-78
2021/09/13 09:29:49;;;;;;;16.88;5.80;;;640.00;1792.00;;;;;;5014707;28;20081;-77
2021/09/13 09:32:23;;;;;;;11.80;5.93;;;640.20;1817.60;;;;;;5014703;28;20033;-79
2021/09/13 09:34:50;;;;;;;9.07;5.40;;;640.10;1817.60;;;;;;5013616;28;20037;-78
2021/09/13 09:37:16;;;;;;;9.65;5.50;;;640.20;1817.60;;;;;;5014832;28;20390;-79
2021/09/13 09:39:47;;;;;;;10.00;5.82;;;640.60;1792.00;;;;;;5013325;28;20033;-78
2021/09/13 09:42:14;;;;;;;9.48;6.25;;;640.80;1792.00;;;;;;5015011;28;20125;-78
2021/09/13 09:44:45;;;;;;;9.73;4.82;;;665.60;1766.40;;;;;;5014122;28;20048;-78
2021/09/13 09:47:13;;;;;;;11.02;5.47;;;665.60;1740.80;;;;;;5013236;28;20022;-78
2021/09/13 09:49:41;;;;;;;10.80;5.38;;;665.60;1740.80;;;;;;5013287;28;20026;-76
2021/09/13 09:52:08;;;;;;;8.60;4.63;;;665.90;1766.40;;;;;;5013579;28;20084;-76
2021/09/13 09:54:34;;;;;;;8.82;5.32;;;665.90;1740.80;;;;;;5013189;28;20030;-78
2021/09/13 09:57:06;;;;;;;12.00;5.93;;;666.00;1715.20;;;;;;5012883;28;20433;-77
2021/09/13 09:59:37;;;;;;;8.27;5.45;;;666.20;1715.20;;;;;;5014269;28;20508;-77
2021/09/13 10:02:16;;;;;;;13.07;7.95;;;666.50;1689.60;;;;;;5014775;28;20038;-77
2021/09/13 10:04:45;;;;;;;14.95;5.18;;;666.50;1689.60;;;;;;5013080;28;20382;-78
2021/09/13 10:07:14;;;;;;;19.67;6.28;;;691.20;1664.00;;;;;;5012771;28;20076;-78
2021/09/13 10:09:41;;;;;;;8.60;5.93;;;691.40;1664.00;;;;;;5013242;28;20363;-77
2021/09/13 10:12:07;;;;;;;7.25;4.75;;;691.40;1664.00;;;;;;5014325;28;20029;-78
2021/09/13 10:14:34;;;;;;;8.52;4.07;;;691.40;1612.80;;;;;;5012675;28;20113;-78
2021/09/13 10:17:01;;;;;;;6.50;4.50;;;691.60;1638.40;;;;;;5014234;28;20076;-77
2021/09/13 10:19:29;;;;;;;8.93;4.22;;;691.80;1612.80;;;;;;5012869;28;20034;-78
2021/09/13 10:21:56;;;;;;;6.55;4.35;;;691.90;1587.20;;;;;;5012764;28;20034;-77
2021/09/13 10:24:35;;;;;;;8.90;5.30;;;716.80;1536.00;;;;;;5014099;28;20049;-77
2021/09/13 10:27:14;;;;;;;6.95;3.90;;;716.90;1536.00;;;;;;5014797;28;20076;-77
2021/09/13 10:29:41;;;;;;;10.85;3.97;;;717.20;1510.40;;;;;;5013319;28;20058;-78
2021/09/13 10:32:11;;;;;;;6.88;3.72;;;717.20;1510.40;;;;;;5014256;28;20034;-78
2021/09/13 10:34:39;;;;;;;7.10;3.80;;;717.40;1459.20;;;;;;5013457;28;20029;-78
2021/09/13 10:37:15;;;;;;;7.25;4.30;;;717.50;1459.20;;;;;;5012708;28;20022;-77
2021/09/13 10:39:47;;;;;;;5.40;3.30;;;717.70;1459.20;;;;;;5014232;28;20026;-78
2021/09/13 10:42:43;;;;;;;5.28;3.63;;;742.40;1459.20;;;;;;5013713;28;20498;-78
2021/09/13 10:45:09;;;;;;;7.85;3.40;;;742.50;1459.20;;;;;;5012906;28;20052;-77
2021/09/13 10:47:36;;;;;;;6.65;3.13;;;742.60;1433.60;;;;;;5013671;28;20485;-78
2021/09/13 10:50:18;;;;;;;7.60;3.55;;;742.60;1459.20;;;;;;5012422;28;20026;-77
2021/09/13 10:52:46;;;;;;;7.18;3.42;;;742.90;1408.00;;;;;;5012767;28;20057;-79
2021/09/13 10:55:18;;;;;;;8.88;4.18;;;743.00;1408.00;;;;;;5012672;28;20026;-78
2021/09/13 10:58:02;;;;;;;8.57;4.53;;;743.10;1382.40;;;;;;5013606;28;20026;-78
2021/09/13 11:00:40;;;;;;;8.50;3.90;;;743.30;1408.00;;;;;;5012236;28;20030;-78
2021/09/13 11:03:34;;;;;;;5.90;3.30;;;768.30;1356.80;;;;;;5011913;28;20041;-77
2021/09/13 11:06:05;;;;;;;6.72;3.40;;;768.60;1382.40;;;;;;5012463;28;20029;-78
2021/09/13 11:08:36;;;;;;;10.85;4.22;;;768.90;1356.80;;;;;;5013195;28;20061;-78
2021/09/13 11:11:07;;;;;;;7.35;3.60;;;793.70;1356.80;;;;;;5016316;28;20040;-78
2021/09/13 11:13:32;;;;;;;5.83;4.40;;;794.00;1356.80;;;;;;5016431;28;20386;-78
2021/09/13 11:15:58;;;;;;;7.05;4.07;;;794.00;1331.20;;;;;;5016187;28;20262;-77
2021/09/13 11:18:37;;;;;;;10.27;5.75;;;794.00;1356.80;;;;;;5016037;28;20026;-78
2021/09/13 11:21:26;;;;;;;11.23;4.80;;;794.20;1331.20;;;;;;5016314;28;20116;-79
2021/09/13 11:23:55;;;;;;;6.88;4.05;;;768.90;1356.80;;;;;;5016011;28;20034;-76
2021/09/13 11:26:31;;;;;;;7.38;4.40;;;768.50;1356.80;;;;;;5016369;28;20137;-77
2021/09/13 11:29:00;;;;;;;6.95;3.97;;;768.50;1331.20;;;;;;5017575;28;20033;-77
2021/09/13 11:31:27;;;;;;;7.00;3.83;;;768.90;1331.20;;;;;;5015634;28;20050;-77
2021/09/13 11:33:54;;;;;;;9.40;3.40;;;793.90;1331.20;;;;;;5017484;28;20079;-77
2021/09/13 11:36:27;;;;;;;5.50;3.53;;;794.00;1331.20;;;;;;5016997;28;20573;-77
2021/09/13 11:38:58;;;;;;;6.93;4.20;;;794.40;1331.20;;;;;;5015773;28;20030;-77
2021/09/13 11:41:23;;;;;;;11.68;5.22;;;794.50;1305.60;;;;;;5015835;28;20033;-78
2021/09/13 11:44:01;;;;;;;7.10;4.10;;;819.40;1280.00;;;;;;5017211;28;20022;-78
2021/09/13 11:46:27;;;;;;;7.05;3.38;;;819.50;1280.00;;;;;;5015452;28;20034;-78
2021/09/13 11:48:53;;;;;;;6.00;4.18;;;819.70;1280.00;;;;;;5017178;28;20022;-78
2021/09/13 11:51:18;;;;;;;7.95;3.47;;;819.70;1305.60;;;;;;5015534;28;20026;-78
2021/09/13 11:54:04;;;;;;;6.65;3.80;;;819.80;1280.00;;;;;;5016927;28;20029;-77
2021/09/13 11:56:31;;;;;;;9.55;5.70;;;;;;;;;;5016842;28;20026;-77
2021/09/13 11:58:56;;;;;;;7.78;4.55;;;845.00;1254.40;;;;;;5016777;28;20371;-78
2021/09/13 12:01:22;;;;;;;6.60;4.55;;;845.20;1228.80;;;;;;5015353;28;20037;-78
2021/09/13 12:03:48;;;;;;;7.47;4.75;;;845.20;1254.40;;;;;;5015402;28;20059;-79
2021/09/13 12:06:20;;;;;;;7.72;5.03;;;;;;;;;;5016263;28;20053;-79
2021/09/13 12:08:46;;;;;;;8.52;3.60;;;;;;;;;;5015139;28;20026;-77
2021/09/13 12:11:16;;;;;;;7.28;3.33;;;;;;;;;;5017025;28;20095;-77
2021/09/13 12:13:43;;;;;;;7.90;5.13;;;;;;;;;;5014563;28;20018;-78
2021/09/13 12:16:09;;;;;;;16.00;5.28;;;;;;;;;;5016446;28;20022;-77
2021/09/13 12:18:35;;;;;;;10.27;4.38;;;;;;;;;;5016829;28;20026;-76